Lizella, Georgia
Current Conditions -  °F | °C
As of 10:53 AM on Friday 19 Dec 2014 (Local Time) from KMCN Reporting Station
Clear Clear  
Wind Chill: 49°   Ceiling: Unl
Heat Index: 49°   Visibility: 10mi
Dew Point: 37°   Wind: 0mph
Humidity: 64%   Direction: NA
Pressure: 30.18"   Gusts: NA
Location:  32.81°N, 83.82°W
Report Text: KMCN 191553Z 00000KT 10SM CLR 09/03 A3018 RMK AO2 SLP220 T00940028
Loading
Personal Weather Stations






























Interactive Weather Map New forecast layout! Learn more

10-Day Weather Forecast

Advertisements
Track Severe Weather on mobile